createdAt,value
2018-09-05T00:01:21.923Z,101225.75
2018-09-05T00:03:50.490Z,101224.41
2018-09-05T00:06:18.687Z,101223.73
2018-09-05T00:08:46.888Z,101217.86
2018-09-05T00:11:15.091Z,101216.02
2018-09-05T00:13:43.322Z,101217.66
2018-09-05T00:16:11.511Z,101216.31
2018-09-05T00:18:39.679Z,101210.44
2018-09-05T00:21:07.871Z,101212.28
2018-09-05T00:23:36.108Z,101205.58
2018-09-05T00:26:04.789Z,101209.60
2018-09-05T00:28:33.043Z,101210.44
2018-09-05T00:31:01.266Z,101206.92
2018-09-05T00:33:29.515Z,101208.80
2018-09-05T00:35:57.711Z,101205.28
2018-09-05T00:38:26.267Z,101204.45
2018-09-05T00:40:54.527Z,101201.44
2018-09-05T00:43:22.795Z,101208.14
2018-09-05T00:45:50.968Z,101211.33
2018-09-05T00:48:19.207Z,101207.30
2018-09-05T00:50:47.463Z,101204.29
2018-09-05T00:53:15.711Z,101199.94
2018-09-05T00:55:43.971Z,101202.62
2018-09-05T00:58:12.167Z,101199.94
2018-09-05T01:00:40.382Z,101196.42
2018-09-05T01:03:08.615Z,101197.76
2018-09-05T01:05:36.855Z,101199.09
2018-09-05T01:08:05.511Z,101200.61
2018-09-05T01:10:33.732Z,101198.95
2018-09-05T01:13:01.925Z,101200.61
2018-09-05T01:15:30.133Z,101198.95
2018-09-05T01:17:58.395Z,101200.79
2018-09-05T01:20:26.587Z,101200.97
2018-09-05T01:22:54.806Z,101202.30
2018-09-05T01:25:23.046Z,101202.30
2018-09-05T01:27:51.515Z,101201.47
2018-09-05T01:30:19.881Z,101202.81
2018-09-05T01:32:48.079Z,101199.30
2018-09-05T01:35:16.263Z,101200.63
2018-09-05T01:37:44.518Z,101200.63
2018-09-05T01:40:12.756Z,101199.31
2018-09-05T01:42:41.021Z,101199.01
2018-09-05T01:45:09.227Z,101195.67
2018-09-05T01:47:37.412Z,101192.66
2018-09-05T01:50:05.604Z,101194.00
2018-09-05T01:52:33.794Z,101191.81
2018-09-05T01:55:01.999Z,101195.84
2018-09-05T01:57:30.203Z,101199.03
2018-09-05T01:59:58.523Z,101195.01
2018-09-05T02:02:26.715Z,101196.02
2018-09-05T02:04:55.600Z,101197.36
2018-09-05T02:07:23.838Z,101201.38
2018-09-05T02:09:52.015Z,101197.53
2018-09-05T02:12:20.493Z,101198.87
2018-09-05T02:14:48.704Z,101196.19
2018-09-05T02:17:16.906Z,101198.03
2018-09-05T02:19:45.143Z,101198.54
2018-09-05T02:22:13.511Z,101197.70
2018-09-05T02:24:42.015Z,101195.53
2018-09-05T02:27:10.188Z,101194.69
2018-09-05T02:29:38.425Z,101199.39
2018-09-05T02:32:06.670Z,101196.55
2018-09-05T02:34:34.886Z,101201.91
2018-09-05T02:37:03.074Z,101199.44
2018-09-05T02:39:31.310Z,101202.80
2018-09-05T02:41:59.524Z,101207.33
2018-09-05T02:44:27.731Z,101205.14
2018-09-05T02:46:55.920Z,101206.48
2018-09-05T02:49:24.174Z,101198.11
2018-09-05T02:51:52.390Z,101207.50
2018-09-05T02:54:20.574Z,101204.98
2018-09-05T02:56:48.884Z,101208.50
2018-09-05T02:59:17.088Z,101206.50
2018-09-05T03:01:45.291Z,101199.80
2018-09-05T03:04:13.480Z,101206.83
2018-09-05T03:06:41.682Z,101205.83
2018-09-05T03:09:09.892Z,101204.81
2018-09-05T03:11:38.215Z,101205.32
2018-09-05T03:14:06.431Z,101209.84
2018-09-05T03:16:34.667Z,101207.16
2018-09-05T03:19:04.108Z,101207.66
2018-09-05T03:21:31.058Z,101203.31
2018-09-05T03:23:59.258Z,101208.50
2018-09-05T03:26:27.534Z,101201.47
2018-09-05T03:28:55.767Z,101209.52
2018-09-05T03:31:23.999Z,101199.63
2018-09-05T03:33:52.287Z,101201.47
2018-09-05T03:36:20.559Z,101201.47
2018-09-05T03:38:48.755Z,101204.33
2018-09-05T03:41:16.958Z,101196.78
2018-09-05T03:43:45.143Z,101203.48
2018-09-05T03:46:13.386Z,101207.51
2018-09-05T03:48:41.592Z,101200.80
2018-09-05T03:51:09.819Z,101203.48
2018-09-05T03:53:38.055Z,101206.16
2018-09-05T03:56:06.260Z,101203.16
2018-09-05T03:58:34.523Z,101197.80
2018-09-05T04:01:02.731Z,101205.33
2018-09-05T04:03:30.981Z,101203.16
2018-09-05T04:05:59.162Z,101204.49
2018-09-05T04:08:27.433Z,101207.17
2018-09-05T04:10:55.651Z,101204.16
2018-09-05T04:13:23.936Z,101208.19
2018-09-05T04:15:52.140Z,101204.66
2018-09-05T04:18:20.314Z,101205.00
2018-09-05T04:20:48.522Z,101208.19
2018-09-05T04:23:16.782Z,101208.02
2018-09-05T04:25:44.995Z,101207.51
2018-09-05T04:28:13.233Z,101205.33
2018-09-05T04:30:41.482Z,101205.84
2018-09-05T04:33:09.719Z,101209.86
2018-09-05T04:35:38.043Z,101205.84
2018-09-05T04:38:06.247Z,101205.84
2018-09-05T04:40:34.617Z,101204.66
2018-09-05T04:43:02.786Z,101203.83
2018-09-05T04:45:31.031Z,101200.64
2018-09-05T04:47:59.266Z,101208.36
2018-09-05T04:50:27.478Z,101202.48
2018-09-05T04:52:55.668Z,101204.84
2018-09-05T04:55:23.859Z,101195.12
2018-09-05T04:57:52.092Z,101198.31
2018-09-05T05:00:20.291Z,101204.51
2018-09-05T05:02:48.499Z,101196.64
2018-09-05T05:05:16.666Z,101205.52
2018-09-05T05:07:44.951Z,101208.20
2018-09-05T05:10:13.163Z,101206.02
2018-09-05T05:12:41.443Z,101214.06
2018-09-05T05:15:09.615Z,101210.24
2018-09-05T05:17:37.824Z,101215.09
2018-09-05T05:20:06.030Z,101222.10
2018-09-05T05:22:34.244Z,101222.94
2018-09-05T05:25:02.567Z,101225.95
2018-09-05T05:27:30.831Z,101220.59
2018-09-05T05:29:59.104Z,101230.64
2018-09-05T05:32:27.356Z,101230.47
2018-09-05T05:34:55.737Z,101230.80
2018-09-05T05:37:24.105Z,101229.79
2018-09-05T05:39:52.302Z,101231.80
2018-09-05T05:42:20.603Z,101234.30
2018-09-05T05:44:48.784Z,101237.65
2018-09-05T05:47:16.979Z,101235.30
2018-09-05T05:49:45.247Z,101237.98
2018-09-05T05:52:13.439Z,101243.47
2018-09-05T05:54:41.616Z,101240.11
2018-09-05T05:57:09.815Z,101241.78
2018-09-05T05:59:38.176Z,101242.95
2018-09-05T06:02:06.527Z,101246.80
2018-09-05T06:04:34.980Z,101246.30
2018-09-05T06:07:03.198Z,101245.80
2018-09-05T06:09:31.418Z,101247.64
2018-09-05T06:11:59.773Z,101245.30
2018-09-05T06:14:28.027Z,101248.64
2018-09-05T06:16:56.274Z,101246.28
2018-09-05T06:19:24.458Z,101243.26
2018-09-05T06:21:52.734Z,101250.47
2018-09-05T06:24:20.947Z,101244.60
2018-09-05T06:26:49.163Z,101245.73
2018-09-05T06:29:18.079Z,101237.19
2018-09-05T06:31:46.286Z,101243.89
2018-09-05T06:34:14.522Z,101243.55
2018-09-05T06:36:42.658Z,101244.55
2018-09-05T06:39:11.306Z,101241.20
2018-09-05T06:41:39.488Z,101251.09
2018-09-05T06:44:08.150Z,101247.06
2018-09-05T06:46:36.404Z,101251.24
2018-09-05T06:49:04.623Z,101255.93
2018-09-05T06:51:32.923Z,101253.73
2018-09-05T06:54:01.152Z,101251.72
2018-09-05T06:56:29.374Z,101255.19
2018-09-05T06:58:57.546Z,101256.01
2018-09-05T07:01:25.752Z,101254.31
2018-09-05T07:03:54.021Z,101252.09
2018-09-05T07:06:22.235Z,101254.42
2018-09-05T07:08:50.431Z,101259.44
2018-09-05T07:11:18.607Z,101261.77
2018-09-05T07:13:46.851Z,101260.95
2018-09-05T07:16:15.079Z,101266.44
2018-09-05T07:18:43.316Z,101264.74
2018-09-05T07:21:11.557Z,101264.72
2018-09-05T07:23:39.710Z,101269.41
2018-09-05T07:26:07.929Z,101264.70
2018-09-05T07:28:36.157Z,101267.03
2018-09-05T07:31:04.563Z,101264.80
2018-09-05T07:33:32.743Z,101267.46
2018-09-05T07:36:00.933Z,101271.13
2018-09-05T07:38:29.139Z,101267.26
2018-09-05T07:40:57.355Z,101263.89
2018-09-05T07:43:25.671Z,101262.48
2018-09-05T07:45:53.884Z,101262.13
2018-09-05T07:48:22.132Z,101258.58
2018-09-05T07:50:50.361Z,101261.92
2018-09-05T07:53:18.534Z,101265.89
2018-09-05T07:55:46.738Z,101262.02
2018-09-05T07:58:14.906Z,101266.20
2018-09-05T08:00:43.091Z,101263.66
2018-09-05T08:03:11.263Z,101261.12
2018-09-05T08:05:39.548Z,101264.80
2018-09-05T08:08:07.791Z,101261.89
2018-09-05T08:10:36.059Z,101253.14
2018-09-05T08:13:04.272Z,101256.34
2018-09-05T08:15:32.497Z,101261.53
2018-09-05T08:18:00.717Z,101264.55
2018-09-05T08:20:29.031Z,101267.56
2018-09-05T08:22:57.278Z,101268.07
2018-09-05T08:25:25.490Z,101262.22
2018-09-05T08:27:53.727Z,101259.92
2018-09-05T08:30:21.923Z,101264.64
2018-09-05T08:32:50.135Z,101260.47
2018-09-05T08:35:18.606Z,101260.97
2018-09-05T08:37:46.618Z,101262.97
2018-09-05T08:40:14.800Z,101265.48
2018-09-05T08:42:43.035Z,101261.27
2018-09-05T08:45:11.343Z,101263.23
2018-09-05T08:47:39.510Z,101256.85
2018-09-05T08:50:07.641Z,101265.23
2018-09-05T08:52:35.839Z,101268.43
2018-09-05T08:55:04.543Z,101265.23
2018-09-05T08:57:32.627Z,101267.27
2018-09-05T09:00:00.836Z,101262.73
2018-09-05T09:02:29.107Z,101263.20
2018-09-05T09:04:57.309Z,101262.70
2018-09-05T09:07:25.501Z,101266.22
2018-09-05T09:09:53.716Z,101261.17
2018-09-05T09:12:21.976Z,101254.09
2018-09-05T09:14:50.191Z,101254.06
2018-09-05T09:17:18.390Z,101254.69
2018-09-05T09:19:46.632Z,101246.91
2018-09-05T09:22:14.862Z,101249.89
2018-09-05T09:24:43.083Z,101243.06
2018-09-05T09:27:11.303Z,101246.19
2018-09-05T09:29:39.496Z,101239.02
2018-09-05T09:32:07.763Z,101240.79
2018-09-05T09:34:36.007Z,101242.34
2018-09-05T09:37:04.256Z,101242.55
2018-09-05T09:39:32.474Z,101233.69
2018-09-05T09:42:00.664Z,101237.95
2018-09-05T09:44:28.900Z,101230.80
2018-09-05T09:46:57.391Z,101231.36
2018-09-05T09:49:25.598Z,101226.57
2018-09-05T09:51:57.983Z,101226.00
2018-09-05T09:54:26.187Z,101230.09
2018-09-05T09:56:54.414Z,101224.65
2018-09-05T09:59:22.655Z,101224.59
2018-09-05T10:01:56.152Z,101229.05
2018-09-05T10:04:29.764Z,101226.36
2018-09-05T10:08:02.927Z,101221.81
2018-09-05T10:10:36.601Z,101219.77
2018-09-05T10:13:10.082Z,101218.73
2018-09-05T10:15:43.768Z,101216.05
2018-09-05T10:18:17.282Z,101213.81
2018-09-05T10:20:45.498Z,101210.60
2018-09-05T10:23:13.892Z,101203.88
2018-09-05T10:25:42.138Z,101201.12
2018-09-05T10:28:10.367Z,101204.23
2018-09-05T10:30:38.602Z,101199.87
2018-09-05T10:33:06.837Z,101206.99
2018-09-05T10:35:35.037Z,101203.72
2018-09-05T10:38:03.295Z,101202.12
2018-09-05T10:40:31.505Z,101200.39
2018-09-05T10:42:59.702Z,101201.83
2018-09-05T10:45:27.928Z,101190.20
2018-09-05T10:47:56.420Z,101199.07
2018-09-05T10:50:24.639Z,101193.83
2018-09-05T10:52:52.895Z,101193.67
2018-09-05T10:55:21.081Z,101179.06
2018-09-05T10:57:49.343Z,101195.25
2018-09-05T11:00:17.572Z,101187.63
2018-09-05T11:02:45.743Z,101185.29
2018-09-05T11:05:13.946Z,101188.34
2018-09-05T11:07:42.178Z,101179.72
2018-09-05T11:10:10.427Z,101177.16
2018-09-05T11:12:38.622Z,101175.75
2018-09-05T11:15:06.949Z,101171.48
2018-09-05T11:17:35.263Z,101166.10
2018-09-05T11:20:03.537Z,101169.65
2018-09-05T11:22:31.808Z,101161.01
2018-09-05T11:25:06.231Z,101163.80
2018-09-05T11:27:34.462Z,101153.72
2018-09-05T11:30:02.605Z,101156.22
2018-09-05T11:32:30.811Z,101157.26
2018-09-05T11:34:59.120Z,101155.28
2018-09-05T11:37:27.563Z,101148.13
2018-09-05T11:39:55.774Z,101157.48
2018-09-05T11:42:24.006Z,101153.13
2018-09-05T11:44:52.330Z,101145.02
2018-09-05T11:47:20.516Z,101148.66
2018-09-05T11:49:48.899Z,101145.63
2018-09-05T11:52:17.211Z,101148.74
2018-09-05T11:54:45.553Z,101158.09
2018-09-05T11:57:13.858Z,101149.55
2018-09-05T11:59:42.132Z,101148.72
2018-09-05T12:02:10.936Z,101153.70
2018-09-05T12:04:39.296Z,101151.87
2018-09-05T12:07:08.029Z,101145.60
2018-09-05T12:09:36.236Z,101141.86
2018-09-05T12:12:04.482Z,101145.08
2018-09-05T12:14:32.683Z,101143.89
2018-09-05T12:17:01.233Z,101137.03
2018-09-05T12:19:29.419Z,101136.82
2018-09-05T12:21:57.579Z,101129.70
2018-09-05T12:24:25.773Z,101125.00
2018-09-05T12:26:53.983Z,101121.09
2018-09-05T12:29:22.252Z,101123.14
2018-09-05T12:31:50.422Z,101122.70
2018-09-05T12:34:18.611Z,101125.66
2018-09-05T12:36:46.897Z,101115.84
2018-09-05T12:39:15.298Z,101116.92
2018-09-05T12:41:43.974Z,101114.52
2018-09-05T12:44:12.691Z,101108.98
2018-09-05T12:46:40.843Z,101115.84
2018-09-05T12:49:09.192Z,101100.67
2018-09-05T12:51:37.468Z,101098.38
2018-09-05T12:54:06.240Z,101095.98
2018-09-05T12:56:34.551Z,101089.48
2018-09-05T12:59:02.792Z,101096.34
2018-09-05T13:01:30.994Z,101092.08
2018-09-05T13:03:59.316Z,101091.14
2018-09-05T13:06:27.856Z,101082.44
2018-09-05T13:08:56.034Z,101086.02
2018-09-05T13:11:24.305Z,101075.88
2018-09-05T13:13:52.469Z,101074.99
2018-09-05T13:16:20.959Z,101076.03
2018-09-05T13:18:49.171Z,101070.11
2018-09-05T13:21:17.373Z,101063.54
2018-09-05T13:23:45.781Z,101070.02
2018-09-05T13:26:14.169Z,101065.93
2018-09-05T13:28:42.817Z,101060.75
2018-09-05T13:31:11.091Z,101061.68
2018-09-05T13:33:39.303Z,101054.43
2018-09-05T13:36:07.695Z,101053.42
2018-09-05T13:38:35.878Z,101043.48
2018-09-05T13:41:04.080Z,101040.64
2018-09-05T13:43:32.341Z,101040.35
2018-09-05T13:46:00.585Z,101033.74
2018-09-05T13:48:28.814Z,101027.94
2018-09-05T13:50:57.047Z,101028.98
2018-09-05T13:53:25.239Z,101022.05
2018-09-05T13:55:53.447Z,101025.77
2018-09-05T13:58:21.627Z,101024.30
2018-09-05T14:00:49.862Z,101020.92
2018-09-05T14:03:18.226Z,101012.55
2018-09-05T14:05:46.435Z,101013.98
2018-09-05T14:08:14.683Z,101008.80
2018-09-05T14:10:43.135Z,101006.09
2018-09-05T14:13:11.324Z,101016.95
2018-09-05T14:15:39.531Z,101008.80
2018-09-05T14:18:07.760Z,101012.78
2018-09-05T14:20:36.015Z,101012.25
2018-09-05T14:23:04.216Z,101005.41
2018-09-05T14:25:36.618Z,101003.00
2018-09-05T14:28:05.410Z,101013.62
2018-09-05T14:30:33.647Z,101009.42
2018-09-05T14:33:01.902Z,101004.14
2018-09-05T14:35:30.105Z,100998.55
2018-09-05T14:37:58.343Z,100996.42
2018-09-05T14:40:26.538Z,100992.78
2018-09-05T14:42:54.774Z,101001.25
2018-09-05T14:45:22.990Z,101000.00
2018-09-05T14:47:51.217Z,100995.23
2018-09-05T14:50:19.533Z,100989.87
2018-09-05T14:52:47.971Z,100991.69
2018-09-05T14:55:16.278Z,100984.80
2018-09-05T14:57:44.766Z,100986.09
2018-09-05T15:00:13.081Z,100983.19
2018-09-05T15:02:41.377Z,100982.30
2018-09-05T15:05:09.753Z,100978.65
2018-09-05T15:07:37.991Z,100975.17
2018-09-05T15:10:06.363Z,100972.45
2018-09-05T15:12:34.583Z,100968.78
2018-09-05T15:15:02.792Z,100965.37
2018-09-05T15:17:31.069Z,100962.82
2018-09-05T15:19:59.295Z,100954.61
2018-09-05T15:22:27.515Z,100954.24
2018-09-05T15:24:55.760Z,100947.66
2018-09-05T15:27:24.031Z,100950.92
2018-09-05T15:29:52.298Z,100949.75
2018-09-05T15:32:20.628Z,100941.20
2018-09-05T15:34:48.793Z,100943.02
2018-09-05T15:37:17.081Z,100946.63
2018-09-05T15:39:45.270Z,100947.73
2018-09-05T15:42:13.467Z,100947.27
2018-09-05T15:44:41.783Z,100938.72
2018-09-05T15:47:10.106Z,100941.22
2018-09-05T15:49:38.320Z,100936.85
2018-09-05T15:52:06.622Z,100943.77
2018-09-05T15:54:35.798Z,100936.30
2018-09-05T15:57:04.004Z,100943.62
2018-09-05T15:59:32.425Z,100940.09
2018-09-05T16:02:01.259Z,100947.30
2018-09-05T16:04:29.524Z,100941.91
2018-09-05T16:06:57.796Z,100942.75
2018-09-05T16:09:26.360Z,100936.91
2018-09-05T16:11:54.844Z,100939.24
2018-09-05T16:14:23.076Z,100931.41
2018-09-05T16:16:51.405Z,100937.89
2018-09-05T16:19:19.610Z,100929.53
2018-09-05T16:21:47.853Z,100935.55
2018-09-05T16:24:16.039Z,100934.12
2018-09-05T16:26:44.223Z,100933.97
2018-09-05T16:29:12.502Z,100932.61
2018-09-05T16:31:40.774Z,100933.52
2018-09-05T16:34:09.515Z,100930.14
2018-09-05T16:36:37.721Z,100932.56
2018-09-05T16:39:08.790Z,100936.87
2018-09-05T16:41:37.420Z,100934.13
2018-09-05T16:44:05.607Z,100934.72
2018-09-05T16:46:33.818Z,100931.54
2018-09-05T16:49:02.042Z,100929.41
2018-09-05T16:51:30.387Z,100928.66
2018-09-05T16:53:58.564Z,100927.89
2018-09-05T16:56:26.851Z,100935.56
2018-09-05T16:58:55.107Z,100938.09
2018-09-05T17:01:23.372Z,100938.70
2018-09-05T17:03:51.604Z,100940.70
2018-09-05T17:06:19.806Z,100949.25
2018-09-05T17:08:48.058Z,100947.20
2018-09-05T17:11:16.366Z,100947.02
2018-09-05T17:13:44.572Z,100951.20
2018-09-05T17:16:12.820Z,100944.56
2018-09-05T17:18:41.067Z,100945.55
2018-09-05T17:21:09.331Z,100943.80
2018-09-05T17:23:37.548Z,100938.83
2018-09-05T17:26:06.166Z,100936.25
2018-09-05T17:28:34.446Z,100941.50
2018-09-05T17:31:02.627Z,100942.98
2018-09-05T17:33:30.840Z,100942.58
2018-09-05T17:35:59.031Z,100951.33
2018-09-05T17:38:27.282Z,100953.56
2018-09-05T17:40:55.472Z,100955.34
2018-09-05T17:43:23.666Z,100956.20
2018-09-05T17:45:51.894Z,100958.22
2018-09-05T17:48:20.151Z,100951.02
2018-09-05T17:50:49.044Z,100956.75
2018-09-05T17:53:19.714Z,100957.70
2018-09-05T17:55:48.195Z,100953.80
2018-09-05T17:58:16.434Z,100958.69
2018-09-05T18:00:44.726Z,100956.86
2018-09-05T18:03:12.954Z,100956.97
2018-09-05T18:05:41.130Z,100959.99
2018-09-05T18:08:09.323Z,100954.94
2018-09-05T18:10:37.566Z,100966.47
2018-09-05T18:13:06.031Z,100967.10
2018-09-05T18:15:34.289Z,100968.77
2018-09-05T18:18:02.605Z,100965.89
2018-09-05T18:20:30.806Z,100966.00
2018-09-05T18:22:59.051Z,100958.00
2018-09-05T18:25:27.344Z,100961.84
2018-09-05T18:27:55.560Z,100972.02
2018-09-05T18:30:23.907Z,100974.81
2018-09-05T18:32:52.395Z,100969.73
2018-09-05T18:35:20.581Z,100972.04
2018-09-05T18:37:48.815Z,100971.83
2018-09-05T18:40:16.991Z,100964.55
2018-09-05T18:42:45.229Z,100959.90
2018-09-05T18:45:13.451Z,100969.14
2018-09-05T18:47:41.697Z,100973.91
2018-09-05T18:50:10.095Z,100981.06
2018-09-05T18:52:38.328Z,100980.44
2018-09-05T18:55:07.436Z,100977.42
2018-09-05T18:57:35.642Z,100976.08
2018-09-05T19:00:03.878Z,100981.47
2018-09-05T19:02:32.123Z,100980.53
2018-09-05T19:05:00.343Z,100978.34
2018-09-05T19:07:28.532Z,100960.09
2018-09-05T19:09:56.749Z,100970.59
2018-09-05T19:12:24.975Z,100963.63
2018-09-05T19:14:53.244Z,100963.94
2018-09-05T19:17:21.438Z,100962.79
2018-09-05T19:19:49.655Z,100958.64
2018-09-05T19:22:17.877Z,100954.59
2018-09-05T19:24:46.076Z,100958.12
2018-09-05T19:27:14.326Z,100955.63
2018-09-05T19:29:42.555Z,100958.33
2018-09-05T19:32:10.776Z,100958.01
2018-09-05T19:34:39.077Z,100940.87
2018-09-05T19:37:07.485Z,100956.78
2018-09-05T19:39:35.696Z,100957.50
2018-09-05T19:42:03.926Z,100951.14
2018-09-05T19:44:32.156Z,100956.42
2018-09-05T19:47:00.449Z,100950.91
2018-09-05T19:49:28.700Z,100953.02
2018-09-05T19:51:59.311Z,100957.98
2018-09-05T19:54:27.533Z,100960.56
2018-09-05T19:56:57.085Z,100960.97
2018-09-05T19:59:26.172Z,100955.98
2018-09-05T20:01:54.441Z,100955.34
2018-09-05T20:04:22.880Z,100953.60
2018-09-05T20:06:51.065Z,100953.29
2018-09-05T20:09:19.458Z,100950.48
2018-09-05T20:11:47.651Z,100949.96
2018-09-05T20:14:15.863Z,100949.33
2018-09-05T20:16:44.067Z,100951.91
2018-09-05T20:19:12.354Z,100949.62
2018-09-05T20:21:40.583Z,100949.02
2018-09-05T20:24:08.988Z,100954.09
2018-09-05T20:26:37.251Z,100949.42
2018-09-05T20:29:05.967Z,100949.11
2018-09-05T20:31:34.899Z,100941.22
2018-09-05T20:34:03.156Z,100943.60
2018-09-05T20:36:31.819Z,100947.52
2018-09-05T20:39:00.012Z,100942.85
2018-09-05T20:41:28.216Z,100936.00
2018-09-05T20:43:56.516Z,100936.23
2018-09-05T20:46:24.727Z,100936.44
2018-09-05T20:48:52.988Z,100932.79
2018-09-05T20:51:21.263Z,100937.34
2018-09-05T20:53:49.466Z,100935.37
2018-09-05T20:56:17.814Z,100934.73
2018-09-05T20:58:46.236Z,100934.10
2018-09-05T21:01:14.417Z,100929.00
2018-09-05T21:03:42.660Z,100928.59
2018-09-05T21:06:10.907Z,100926.14
2018-09-05T21:08:39.123Z,100926.30
2018-09-05T21:11:07.307Z,100925.98
2018-09-05T21:13:35.707Z,100921.83
2018-09-05T21:16:03.975Z,100920.88
2018-09-05T21:18:33.222Z,100922.42
2018-09-05T21:21:01.503Z,100922.94
2018-09-05T21:23:31.555Z,100926.98
2018-09-05T21:25:59.803Z,100929.88
2018-09-05T21:28:28.145Z,100923.77
2018-09-05T21:30:56.390Z,100928.41
2018-09-05T21:33:25.120Z,100926.66
2018-09-05T21:35:53.334Z,100924.16
2018-09-05T21:38:21.587Z,100923.52
2018-09-05T21:40:49.790Z,100935.84
2018-09-05T21:43:18.046Z,100936.75
2018-09-05T21:45:46.403Z,100941.30
2018-09-05T21:48:14.706Z,100940.66
2018-09-05T21:50:43.593Z,100944.30
2018-09-05T21:53:11.831Z,100946.35
2018-09-05T21:55:40.034Z,100954.43
2018-09-05T21:58:08.274Z,100956.29
2018-09-05T22:00:37.445Z,100958.54
2018-09-05T22:03:05.834Z,100963.28
2018-09-05T22:05:34.674Z,100966.37
2018-09-05T22:08:02.900Z,100964.70
2018-09-05T22:10:31.126Z,100964.88
2018-09-05T22:12:59.355Z,100961.55
2018-09-05T22:15:31.990Z,100960.08
2018-09-05T22:18:00.200Z,100960.27
2018-09-05T22:20:28.423Z,100958.09
2018-09-05T22:22:56.647Z,100963.70
2018-09-05T22:25:24.899Z,100954.98
2018-09-05T22:27:53.086Z,100953.52
2018-09-05T22:30:21.381Z,100948.33
2018-09-05T22:32:49.575Z,100945.33
2018-09-05T22:35:17.927Z,100951.73
2018-09-05T22:37:46.156Z,100951.09
2018-09-05T22:40:14.378Z,100950.77
2018-09-05T22:42:52.559Z,100951.16
2018-09-05T22:45:32.201Z,100949.69
2018-09-05T22:48:26.688Z,100953.08
2018-09-05T22:51:13.179Z,100953.16
2018-09-05T22:54:11.731Z,100943.92
2018-09-05T22:56:57.665Z,100942.14
2018-09-05T22:59:36.977Z,100941.50
2018-09-05T23:03:18.622Z,100940.38
2018-09-05T23:05:57.836Z,100937.75
2018-09-05T23:08:41.816Z,100928.28
2018-09-05T23:11:21.690Z,100930.39
2018-09-05T23:14:04.155Z,100933.08
2018-09-05T23:16:43.658Z,100927.70
2018-09-05T23:19:33.648Z,100930.07
2018-09-05T23:22:01.887Z,100929.75
2018-09-05T23:24:30.964Z,100923.03
2018-09-05T23:26:59.175Z,100917.97
2018-09-05T23:29:27.431Z,100919.31
2018-09-05T23:31:55.686Z,100916.95
2018-09-05T23:34:23.956Z,100914.58
2018-09-05T23:36:52.160Z,100899.08
2018-09-05T23:39:20.351Z,100894.14
2018-09-05T23:41:48.567Z,100891.55
2018-09-05T23:44:16.780Z,100891.16
2018-09-05T23:46:45.095Z,100888.08
2018-09-05T23:49:13.305Z,100888.72
2018-09-05T23:51:41.511Z,100885.84
2018-09-05T23:54:09.783Z,100885.52
2018-09-05T23:56:38.125Z,100890.90
2018-09-05T23:59:07.528Z,100886.55
